createdAt,value
2023-03-12T00:01:13.692Z,9.34
2023-03-12T00:03:40.147Z,9.36
2023-03-12T00:06:10.845Z,9.36
2023-03-12T00:08:37.467Z,9.39
2023-03-12T00:11:03.802Z,9.36
2023-03-12T00:13:30.238Z,9.34
2023-03-12T00:15:56.635Z,9.38
2023-03-12T00:18:22.985Z,9.33
2023-03-12T00:20:49.355Z,9.34
2023-03-12T00:23:15.710Z,9.35
2023-03-12T00:25:42.433Z,9.35
2023-03-12T00:28:09.630Z,9.36
2023-03-12T00:30:36.050Z,9.37
2023-03-12T00:33:02.432Z,9.38
2023-03-12T00:35:28.877Z,9.41
2023-03-12T00:37:55.300Z,9.45
2023-03-12T00:40:22.811Z,9.47
2023-03-12T00:42:49.281Z,9.44
2023-03-12T00:45:15.881Z,9.41
2023-03-12T00:47:42.268Z,9.40
2023-03-12T00:50:08.670Z,9.38
2023-03-12T00:52:36.550Z,9.38
2023-03-12T00:55:03.460Z,9.40
2023-03-12T00:57:29.881Z,9.35
2023-03-12T00:59:56.440Z,9.24
2023-03-12T01:02:28.334Z,9.12
2023-03-12T01:04:54.846Z,9.17
2023-03-12T01:07:21.249Z,9.13
2023-03-12T01:09:48.205Z,9.15
2023-03-12T01:12:14.726Z,8.96
2023-03-12T01:14:41.248Z,8.91
2023-03-12T01:17:07.708Z,9.09
2023-03-12T01:19:34.145Z,9.14
2023-03-12T01:22:00.586Z,9.22
2023-03-12T01:24:27.320Z,9.32
2023-03-12T01:26:53.805Z,9.35
2023-03-12T01:29:20.370Z,9.36
2023-03-12T01:31:46.852Z,9.38
2023-03-12T01:34:13.300Z,9.41
2023-03-12T01:36:39.686Z,9.38
2023-03-12T01:39:06.117Z,9.43
2023-03-12T01:41:32.664Z,9.45
2023-03-12T01:44:01.579Z,9.49
2023-03-12T01:49:18.978Z,9.41
2023-03-12T01:51:45.355Z,9.40
2023-03-12T01:54:11.769Z,9.41
2023-03-12T01:56:38.297Z,9.23
2023-03-12T01:59:04.823Z,9.00
2023-03-12T02:01:31.397Z,9.17
2023-03-12T02:03:57.889Z,9.27
2023-03-12T02:06:24.323Z,9.31
2023-03-12T02:08:53.061Z,9.34
2023-03-12T02:11:19.635Z,9.38
2023-03-12T02:13:46.082Z,9.42
2023-03-12T02:16:12.600Z,9.39
2023-03-12T02:18:39.047Z,9.43
2023-03-12T02:21:05.472Z,9.40
2023-03-12T02:23:31.900Z,9.40
2023-03-12T02:25:58.360Z,9.41
2023-03-12T02:28:24.836Z,9.41
2023-03-12T02:30:51.354Z,9.38
2023-03-12T02:33:17.833Z,9.39
2023-03-12T02:35:44.328Z,9.29
2023-03-12T02:38:10.772Z,9.29
2023-03-12T02:40:37.206Z,9.30
2023-03-12T02:43:03.659Z,9.21
2023-03-12T02:45:30.108Z,9.19
2023-03-12T02:47:56.570Z,9.34
2023-03-12T02:50:23.023Z,9.15
2023-03-12T02:52:49.546Z,9.26
2023-03-12T02:55:16.354Z,9.38
2023-03-12T02:57:45.047Z,9.38
2023-03-12T03:00:11.908Z,9.36
2023-03-12T03:02:38.382Z,9.37
2023-03-12T03:05:05.794Z,9.37
2023-03-12T03:07:32.304Z,9.41
2023-03-12T03:09:58.738Z,9.28
2023-03-12T03:12:25.272Z,9.35
2023-03-12T03:14:51.773Z,9.29
2023-03-12T03:17:18.182Z,9.23
2023-03-12T03:19:44.676Z,9.16
2023-03-12T03:22:11.215Z,9.21
2023-03-12T03:24:37.717Z,8.96
2023-03-12T03:27:04.212Z,9.00
2023-03-12T03:29:33.811Z,9.09
2023-03-12T03:32:00.270Z,9.19
2023-03-12T03:34:27.542Z,9.23
2023-03-12T03:36:54.831Z,9.22
2023-03-12T03:39:21.322Z,9.20
2023-03-12T03:41:47.794Z,9.23
2023-03-12T03:44:16.949Z,9.25
2023-03-12T03:46:43.404Z,9.16
2023-03-12T03:49:12.575Z,9.24
2023-03-12T03:51:39.061Z,9.35
2023-03-12T03:54:05.557Z,9.36
2023-03-12T03:56:32.043Z,9.38
2023-03-12T03:58:58.582Z,9.27
2023-03-12T04:01:25.093Z,9.36
2023-03-12T04:03:51.531Z,9.19
2023-03-12T04:06:18.004Z,9.43
2023-03-12T04:08:44.442Z,9.39
2023-03-12T04:11:10.927Z,9.36
2023-03-12T04:13:37.432Z,9.41
2023-03-12T04:16:03.940Z,9.47
2023-03-12T04:18:30.404Z,9.41
2023-03-12T04:20:56.922Z,9.41
2023-03-12T04:23:23.369Z,9.46
2023-03-12T04:25:49.841Z,9.47
2023-03-12T04:28:16.298Z,9.39
2023-03-12T04:30:42.731Z,9.46
2023-03-12T04:33:09.249Z,9.37
2023-03-12T04:35:35.775Z,9.46
2023-03-12T04:38:09.487Z,9.52
2023-03-12T04:40:35.979Z,9.52
2023-03-12T04:45:42.803Z,9.48
2023-03-12T04:48:09.273Z,9.50
2023-03-12T04:53:16.142Z,9.43
2023-03-12T04:55:42.876Z,9.52
2023-03-12T04:58:09.229Z,9.48
2023-03-12T05:00:35.736Z,9.20
2023-03-12T05:03:02.233Z,9.19
2023-03-12T05:05:28.729Z,9.23
2023-03-12T05:07:55.286Z,8.91
2023-03-12T05:10:21.749Z,9.17
2023-03-12T05:12:48.166Z,9.30
2023-03-12T05:15:14.659Z,9.41
2023-03-12T05:17:41.144Z,9.47
2023-03-12T05:20:07.638Z,9.52
2023-03-12T05:22:34.097Z,9.56
2023-03-12T05:25:00.580Z,9.63
2023-03-12T05:27:27.045Z,9.62
2023-03-12T05:29:53.499Z,9.47
2023-03-12T05:32:19.946Z,9.63
2023-03-12T05:34:46.438Z,9.73
2023-03-12T05:37:12.841Z,9.75
2023-03-12T05:39:39.244Z,9.78
2023-03-12T05:42:05.774Z,9.80
2023-03-12T05:44:32.318Z,9.81
2023-03-12T05:46:59.201Z,9.82
2023-03-12T05:49:26.786Z,9.83
2023-03-12T05:51:53.940Z,9.88
2023-03-12T05:54:21.612Z,9.89
2023-03-12T05:56:48.018Z,9.83
2023-03-12T05:59:14.436Z,9.81
2023-03-12T06:01:40.943Z,9.79
2023-03-12T06:04:07.371Z,9.84
2023-03-12T06:06:33.845Z,9.82
2023-03-12T06:09:00.271Z,9.76
2023-03-12T06:11:26.786Z,9.77
2023-03-12T06:13:53.429Z,9.79
2023-03-12T06:16:19.967Z,9.82
2023-03-12T06:18:46.548Z,9.84
2023-03-12T06:21:12.960Z,9.76
2023-03-12T06:23:41.515Z,9.80
2023-03-12T06:26:07.909Z,9.85
2023-03-12T06:31:18.733Z,9.89
2023-03-12T06:33:45.260Z,9.92
2023-03-12T06:36:11.728Z,9.88
2023-03-12T06:38:38.248Z,9.86
2023-03-12T06:41:04.618Z,9.91
2023-03-12T06:43:31.067Z,9.95
2023-03-12T06:45:57.634Z,10.01
2023-03-12T06:48:24.117Z,10.08
2023-03-12T06:50:50.611Z,9.64
2023-03-12T06:53:16.990Z,9.57
2023-03-12T06:55:43.343Z,9.78
2023-03-12T06:58:09.764Z,9.90
2023-03-12T07:00:36.226Z,10.00
2023-03-12T07:03:02.577Z,10.06
2023-03-12T07:05:30.173Z,10.05
2023-03-12T07:07:56.659Z,9.99
2023-03-12T07:10:23.152Z,9.90
2023-03-12T07:12:49.553Z,9.98
2023-03-12T07:15:15.932Z,10.05
2023-03-12T07:17:42.441Z,9.93
2023-03-12T07:20:08.844Z,9.71
2023-03-12T07:22:44.448Z,9.86
2023-03-12T07:25:10.862Z,9.99
2023-03-12T07:27:37.201Z,10.05
2023-03-12T07:30:03.574Z,10.08
2023-03-12T07:32:29.998Z,10.18
2023-03-12T07:34:57.779Z,10.23
2023-03-12T07:37:24.208Z,10.33
2023-03-12T07:39:50.840Z,10.32
2023-03-12T07:42:19.724Z,10.14
2023-03-12T07:44:46.186Z,10.08
2023-03-12T07:47:23.757Z,10.16
2023-03-12T07:49:59.066Z,10.22
2023-03-12T07:52:25.655Z,10.30
2023-03-12T07:54:52.592Z,10.34
2023-03-12T07:57:19.335Z,10.32
2023-03-12T07:59:45.863Z,10.38
2023-03-12T08:02:12.304Z,10.39
2023-03-12T08:04:38.822Z,10.29
2023-03-12T08:07:07.947Z,10.37
2023-03-12T08:09:35.593Z,10.34
2023-03-12T08:12:02.025Z,10.32
2023-03-12T08:14:28.514Z,10.40
2023-03-12T08:16:55.140Z,10.44
2023-03-12T08:19:21.608Z,10.30
2023-03-12T08:21:48.119Z,10.20
2023-03-12T08:24:14.752Z,10.26
2023-03-12T08:26:41.229Z,10.33
2023-03-12T08:29:07.651Z,10.32
2023-03-12T08:31:34.085Z,10.40
2023-03-12T08:34:00.480Z,10.45
2023-03-12T08:36:26.832Z,10.25
2023-03-12T08:38:53.254Z,10.38
2023-03-12T08:41:19.684Z,10.44
2023-03-12T08:43:46.073Z,10.30
2023-03-12T08:46:12.607Z,10.37
2023-03-12T08:48:39.009Z,10.44
2023-03-12T08:51:05.402Z,10.30
2023-03-12T08:53:31.756Z,10.36
2023-03-12T08:55:58.197Z,10.35
2023-03-12T08:58:27.134Z,10.47
2023-03-12T09:00:53.621Z,10.38
2023-03-12T09:03:20.064Z,10.42
2023-03-12T09:05:46.477Z,10.57
2023-03-12T09:08:12.965Z,10.47
2023-03-12T09:10:39.450Z,10.65
2023-03-12T09:13:05.885Z,10.80
2023-03-12T09:15:32.281Z,10.92
2023-03-12T09:17:58.700Z,10.96
2023-03-12T09:20:25.116Z,10.92
2023-03-12T09:22:51.572Z,10.90
2023-03-12T09:25:17.949Z,10.96
2023-03-12T09:27:44.383Z,10.95
2023-03-12T09:30:11.858Z,10.79
2023-03-12T09:32:38.266Z,10.59
2023-03-12T09:35:04.691Z,10.54
2023-03-12T09:37:31.048Z,10.63
2023-03-12T09:39:57.497Z,10.76
2023-03-12T09:42:24.400Z,10.70
2023-03-12T09:44:50.772Z,10.74
2023-03-12T09:47:17.313Z,10.92
2023-03-12T09:49:43.809Z,11.04
2023-03-12T09:52:10.293Z,11.22
2023-03-12T09:54:36.734Z,11.32
2023-03-12T09:57:03.104Z,11.55
2023-03-12T09:59:29.516Z,11.37
2023-03-12T10:01:57.011Z,11.35
2023-03-12T10:04:23.498Z,11.34
2023-03-12T10:06:49.867Z,11.47
2023-03-12T10:09:16.374Z,11.51
2023-03-12T10:11:42.868Z,11.59
2023-03-12T10:14:09.257Z,11.48
2023-03-12T10:16:35.730Z,11.61
2023-03-12T10:19:02.152Z,11.52
2023-03-12T10:21:28.566Z,11.64
2023-03-12T10:23:55.036Z,11.99
2023-03-12T10:26:21.506Z,12.09
2023-03-12T10:28:47.973Z,12.19
2023-03-12T10:31:17.116Z,11.96
2023-03-12T10:33:43.517Z,12.02
2023-03-12T10:36:10.023Z,12.18
2023-03-12T10:38:36.583Z,12.28
2023-03-12T10:41:03.027Z,12.44
2023-03-12T10:43:29.513Z,12.63
2023-03-12T10:45:56.034Z,12.64
2023-03-12T10:48:22.510Z,12.81
2023-03-12T10:50:48.957Z,12.87
2023-03-12T10:53:15.342Z,12.82
2023-03-12T10:55:41.826Z,12.67
2023-03-12T10:58:08.267Z,12.71
2023-03-12T11:00:34.718Z,12.61
2023-03-12T11:03:01.221Z,12.72
2023-03-12T11:05:27.674Z,12.83
2023-03-12T11:07:54.168Z,12.54
2023-03-12T11:10:20.652Z,12.66
2023-03-12T11:12:47.102Z,12.57
2023-03-12T11:15:13.609Z,12.55
2023-03-12T11:17:39.948Z,12.70
2023-03-12T11:20:09.342Z,12.57
2023-03-12T11:22:38.279Z,12.64
2023-03-12T11:25:04.672Z,12.72
2023-03-12T11:27:31.206Z,12.83
2023-03-12T11:29:57.663Z,12.77
2023-03-12T11:32:24.169Z,12.95
2023-03-12T11:34:50.698Z,12.78
2023-03-12T11:37:17.127Z,12.71
2023-03-12T11:39:43.851Z,12.85
2023-03-12T11:42:10.309Z,12.81
2023-03-12T11:44:36.835Z,12.93
2023-03-12T11:47:03.313Z,12.92
2023-03-12T11:49:29.800Z,12.92
2023-03-12T11:51:56.274Z,13.07
2023-03-12T11:54:22.737Z,13.25
2023-03-12T11:56:49.255Z,13.24
2023-03-12T11:59:15.748Z,13.37
2023-03-12T12:01:42.271Z,13.51
2023-03-12T12:04:08.826Z,13.36
2023-03-12T12:06:35.170Z,13.31
2023-03-12T12:09:04.994Z,13.37
2023-03-12T12:11:31.405Z,13.42
2023-03-12T12:13:57.849Z,13.36
2023-03-12T12:16:24.244Z,13.34
2023-03-12T12:18:50.668Z,13.55
2023-03-12T12:21:17.039Z,13.60
2023-03-12T12:26:23.690Z,13.76
2023-03-12T12:28:50.055Z,13.71
2023-03-12T12:31:17.224Z,13.64
2023-03-12T12:33:43.751Z,13.59
2023-03-12T12:36:10.368Z,13.55
2023-03-12T12:38:36.928Z,13.53
2023-03-12T12:41:03.424Z,13.59
2023-03-12T12:43:29.854Z,13.72
2023-03-12T12:45:56.356Z,13.64
2023-03-12T12:48:22.827Z,13.77
2023-03-12T12:50:49.294Z,13.77
2023-03-12T12:53:15.720Z,13.62
2023-03-12T12:55:42.097Z,13.61
2023-03-12T12:58:08.588Z,13.66
2023-03-12T13:00:35.063Z,13.62
2023-03-12T13:03:01.459Z,13.70
2023-03-12T13:05:27.847Z,13.45
2023-03-12T13:07:54.228Z,13.48
2023-03-12T13:10:20.770Z,13.46
2023-03-12T13:12:47.341Z,13.40
2023-03-12T13:15:18.819Z,13.37
2023-03-12T13:17:45.267Z,13.39
2023-03-12T13:20:12.678Z,13.38
2023-03-12T13:22:39.027Z,13.48
2023-03-12T13:25:05.355Z,13.60
2023-03-12T13:27:31.727Z,13.53
2023-03-12T13:29:58.093Z,13.55
2023-03-12T13:32:24.434Z,13.57
2023-03-12T13:34:50.833Z,13.58
2023-03-12T13:37:17.218Z,13.59
2023-03-12T13:42:23.992Z,13.51
2023-03-12T13:44:50.416Z,13.47
2023-03-12T13:47:16.878Z,13.46
2023-03-12T13:49:45.745Z,13.36
2023-03-12T13:52:19.514Z,13.55
2023-03-12T13:54:45.942Z,13.69
2023-03-12T13:57:12.510Z,13.62
2023-03-12T13:59:38.886Z,13.61
2023-03-12T14:02:05.276Z,13.76
2023-03-12T14:04:31.708Z,13.71
2023-03-12T14:06:58.232Z,13.67
2023-03-12T14:09:24.726Z,13.69
2023-03-12T14:11:51.279Z,13.69
2023-03-12T14:14:17.715Z,13.71
2023-03-12T14:16:44.277Z,13.80
2023-03-12T14:19:10.642Z,13.87
2023-03-12T14:21:38.950Z,13.72
2023-03-12T14:24:06.201Z,13.65
2023-03-12T14:26:32.618Z,13.55
2023-03-12T14:28:59.111Z,13.62
2023-03-12T14:31:25.495Z,13.83
2023-03-12T14:33:51.964Z,13.71
2023-03-12T14:36:18.420Z,13.70
2023-03-12T14:41:35.061Z,13.99
2023-03-12T14:44:01.489Z,14.04
2023-03-12T14:46:27.892Z,14.14
2023-03-12T14:48:54.333Z,14.23
2023-03-12T14:51:23.862Z,14.26
2023-03-12T14:53:50.533Z,14.24
2023-03-12T14:56:16.938Z,14.25
2023-03-12T14:58:45.524Z,14.12
2023-03-12T15:01:11.873Z,14.19
2023-03-12T15:03:38.332Z,14.22
2023-03-12T15:06:04.761Z,14.18
2023-03-12T15:08:33.556Z,14.15
2023-03-12T15:10:59.948Z,14.22
2023-03-12T15:13:26.363Z,14.33
2023-03-12T15:15:52.979Z,14.36
2023-03-12T15:18:19.396Z,14.54
2023-03-12T15:20:45.801Z,14.59
2023-03-12T15:23:12.206Z,14.57
2023-03-12T15:25:38.544Z,14.60
2023-03-12T15:28:05.022Z,14.54
2023-03-12T15:30:31.503Z,14.40
2023-03-12T15:32:58.182Z,14.51
2023-03-12T15:35:25.726Z,14.49
2023-03-12T15:37:54.881Z,14.60
2023-03-12T15:40:21.508Z,14.67
2023-03-12T15:42:49.421Z,14.65
2023-03-12T15:45:15.854Z,14.61
2023-03-12T15:47:42.230Z,14.70
2023-03-12T15:50:08.564Z,14.70
2023-03-12T15:52:35.002Z,14.76
2023-03-12T15:55:01.379Z,14.82
2023-03-12T15:57:27.703Z,14.78
2023-03-12T15:59:54.133Z,14.71
2023-03-12T16:02:20.579Z,14.58
2023-03-12T16:04:46.984Z,14.58
2023-03-12T16:07:13.370Z,14.63
2023-03-12T16:09:39.791Z,14.68
2023-03-12T16:12:06.209Z,14.72
2023-03-12T16:14:32.631Z,14.80
2023-03-12T16:16:59.071Z,14.79
2023-03-12T16:19:25.507Z,14.86
2023-03-12T16:21:51.903Z,14.91
2023-03-12T16:24:18.267Z,14.75
2023-03-12T16:26:44.723Z,14.76
2023-03-12T16:29:11.684Z,14.96
2023-03-12T16:31:38.117Z,15.03
2023-03-12T16:34:04.544Z,15.26
2023-03-12T16:36:30.964Z,15.47
2023-03-12T16:38:57.939Z,15.61
2023-03-12T16:41:24.334Z,15.71
2023-03-12T16:43:50.772Z,15.75
2023-03-12T16:46:20.436Z,15.65
2023-03-12T16:48:48.171Z,15.66
2023-03-12T16:51:14.647Z,15.70
2023-03-12T16:53:41.515Z,15.72
2023-03-12T16:56:08.957Z,15.71
2023-03-12T16:58:38.173Z,15.73
2023-03-12T17:01:04.691Z,15.67
2023-03-12T17:03:35.621Z,15.63
2023-03-12T17:08:42.558Z,15.19
2023-03-12T17:11:09.041Z,15.00
2023-03-12T17:13:35.747Z,14.89
2023-03-12T17:16:02.207Z,14.79
2023-03-12T17:18:28.651Z,14.68
2023-03-12T17:20:55.500Z,14.60
2023-03-12T17:23:21.949Z,14.57
2023-03-12T17:25:48.381Z,14.51
2023-03-12T17:28:14.839Z,14.41
2023-03-12T17:30:41.287Z,14.34
2023-03-12T17:33:07.700Z,14.29
2023-03-12T17:35:36.430Z,14.22
2023-03-12T17:38:02.925Z,14.14
2023-03-12T17:40:31.487Z,14.05
2023-03-12T17:42:57.827Z,14.00
2023-03-12T17:45:24.283Z,13.78
2023-03-12T17:47:50.760Z,13.62
2023-03-12T17:50:17.246Z,13.81
2023-03-12T17:52:43.686Z,13.90
2023-03-12T17:55:11.713Z,13.90
2023-03-12T17:57:38.235Z,13.86
2023-03-12T18:00:04.740Z,13.85
2023-03-12T18:02:31.183Z,13.87
2023-03-12T18:04:59.404Z,13.84
2023-03-12T18:07:26.024Z,13.82
2023-03-12T18:09:52.416Z,13.81
2023-03-12T18:12:18.882Z,13.82
2023-03-12T18:14:48.887Z,13.82
2023-03-12T18:17:15.353Z,13.83
2023-03-12T18:19:41.808Z,13.78
2023-03-12T18:22:08.214Z,13.73
2023-03-12T18:24:34.701Z,13.67
2023-03-12T18:27:01.162Z,13.65
2023-03-12T18:29:27.564Z,13.65
2023-03-12T18:31:54.038Z,13.61
2023-03-12T18:34:20.533Z,13.61
2023-03-12T18:36:47.029Z,13.62
2023-03-12T18:39:13.589Z,13.47
2023-03-12T18:41:41.944Z,13.48
2023-03-12T18:44:12.077Z,13.35
2023-03-12T18:46:38.527Z,13.32
2023-03-12T18:49:04.984Z,13.40
2023-03-12T18:51:31.448Z,13.38
2023-03-12T18:53:58.107Z,13.38
2023-03-12T18:56:24.500Z,13.38
2023-03-12T18:58:50.966Z,13.34
2023-03-12T19:01:17.346Z,13.33
2023-03-12T19:06:24.111Z,13.33
2023-03-12T19:08:50.517Z,13.13
2023-03-12T19:11:17.879Z,13.16
2023-03-12T19:13:46.660Z,13.21
2023-03-12T19:16:13.134Z,13.22
2023-03-12T19:18:39.669Z,13.29
2023-03-12T19:21:06.111Z,13.22
2023-03-12T19:23:32.622Z,13.21
2023-03-12T19:25:59.153Z,13.25
2023-03-12T19:28:25.570Z,13.22
2023-03-12T19:30:52.036Z,13.22
2023-03-12T19:33:18.608Z,13.22
2023-03-12T19:35:45.170Z,13.17
2023-03-12T19:40:55.299Z,13.13
2023-03-12T19:43:22.195Z,13.14
2023-03-12T19:45:48.774Z,13.13
2023-03-12T19:48:15.279Z,13.12
2023-03-12T19:50:41.770Z,13.07
2023-03-12T19:53:08.228Z,13.10
2023-03-12T19:55:34.658Z,13.05
2023-03-12T19:58:01.115Z,13.01
2023-03-12T20:00:28.977Z,13.00
2023-03-12T20:02:55.671Z,12.97
2023-03-12T20:05:22.209Z,12.89
2023-03-12T20:07:48.677Z,12.97
2023-03-12T20:10:15.202Z,13.03
2023-03-12T20:12:49.090Z,13.02
2023-03-12T20:15:20.790Z,13.07
2023-03-12T20:17:47.351Z,13.08
2023-03-12T20:20:13.725Z,13.09
2023-03-12T20:22:40.083Z,12.98
2023-03-12T20:27:52.609Z,13.02
2023-03-12T20:30:19.060Z,13.05
2023-03-12T20:32:46.843Z,13.02
2023-03-12T20:35:13.366Z,12.93
2023-03-12T20:37:40.239Z,12.93
2023-03-12T20:40:07.423Z,12.91
2023-03-12T20:42:33.848Z,12.93
2023-03-12T20:45:00.341Z,12.90
2023-03-12T20:47:26.711Z,12.93
2023-03-12T20:49:53.149Z,12.94
2023-03-12T20:52:19.559Z,12.86
2023-03-12T20:54:46.009Z,12.75
2023-03-12T20:57:15.611Z,12.71
2023-03-12T20:59:42.131Z,12.76
2023-03-12T21:02:08.594Z,12.81
2023-03-12T21:04:35.075Z,12.82
2023-03-12T21:07:01.597Z,12.84
2023-03-12T21:09:48.283Z,12.88
2023-03-12T21:12:14.842Z,12.87
2023-03-12T21:14:44.319Z,12.71
2023-03-12T21:17:10.805Z,12.53
2023-03-12T21:19:37.249Z,12.58
2023-03-12T21:22:04.711Z,12.63
2023-03-12T21:24:31.119Z,12.62
2023-03-12T21:26:57.558Z,12.52
2023-03-12T21:29:23.992Z,12.48
2023-03-12T21:31:50.476Z,12.56
2023-03-12T21:34:16.876Z,12.58
2023-03-12T21:36:43.380Z,12.61
2023-03-12T21:39:09.851Z,12.57
2023-03-12T21:41:37.569Z,12.63
2023-03-12T21:44:04.089Z,12.65
2023-03-12T21:46:30.718Z,12.68
2023-03-12T21:49:01.867Z,12.68
2023-03-12T21:51:28.276Z,12.72
2023-03-12T21:53:54.675Z,12.73
2023-03-12T21:56:21.153Z,12.72
2023-03-12T21:58:47.645Z,12.70
2023-03-12T22:01:14.153Z,12.68
2023-03-12T22:03:40.740Z,12.66
2023-03-12T22:06:07.178Z,12.63
2023-03-12T22:08:33.731Z,12.59
2023-03-12T22:11:00.248Z,12.53
2023-03-12T22:13:26.752Z,12.50
2023-03-12T22:15:53.266Z,12.47
2023-03-12T22:18:19.975Z,12.43
2023-03-12T22:20:46.741Z,12.34
2023-03-12T22:23:13.177Z,12.36
2023-03-12T22:25:39.849Z,12.34
2023-03-12T22:28:07.670Z,12.31
2023-03-12T22:30:34.430Z,12.36
2023-03-12T22:33:01.052Z,12.11
2023-03-12T22:35:28.799Z,12.10
2023-03-12T22:37:55.310Z,12.20
2023-03-12T22:40:21.790Z,12.20
2023-03-12T22:42:48.301Z,12.25
2023-03-12T22:45:14.805Z,12.24
2023-03-12T22:47:41.264Z,12.22
2023-03-12T22:50:07.726Z,12.26
2023-03-12T22:52:34.454Z,12.24
2023-03-12T22:55:00.913Z,12.26
2023-03-12T22:57:28.692Z,12.25
2023-03-12T23:00:05.556Z,12.24
2023-03-12T23:02:36.920Z,12.27
2023-03-12T23:05:06.759Z,12.25
2023-03-12T23:07:33.192Z,12.23
2023-03-12T23:10:00.006Z,12.24
2023-03-12T23:12:26.547Z,12.20
2023-03-12T23:14:53.845Z,12.20
2023-03-12T23:17:20.345Z,12.19
2023-03-12T23:19:46.748Z,12.18
2023-03-12T23:22:13.183Z,12.22
2023-03-12T23:24:42.439Z,12.20
2023-03-12T23:27:09.192Z,12.23
2023-03-12T23:29:36.034Z,12.22
2023-03-12T23:32:02.483Z,12.19
2023-03-12T23:34:29.102Z,12.23
2023-03-12T23:36:55.656Z,12.24
2023-03-12T23:39:22.285Z,12.22
2023-03-12T23:41:48.713Z,12.21
2023-03-12T23:44:15.125Z,12.25
2023-03-12T23:46:41.543Z,12.26
2023-03-12T23:49:19.146Z,12.27
2023-03-12T23:51:51.254Z,12.27
2023-03-12T23:54:17.696Z,12.21
2023-03-12T23:56:44.523Z,12.21
2023-03-12T23:59:10.946Z,12.22
